Time;durP1;ratioP1;P1;durP2;ratioP2;P2;SDS_P1;SDS_P2;PMS_P1;PMS_P2;Temp;Humidity;BMP_temperature;BMP_pressure;BME280_temperature;BME280_humidity;BME280_pressure;Samples;Min_cycle;Max_cycle;Signal;HPM_P1;HPM_P2
2022/12/18 00:01:15;;;;;;;;;;;;;;;3.00;49.58;100437.03;4507990;31;35051;-84
2022/12/18 00:03:42;;;;;;;;;;;;;;;3.58;48.52;100445.75;4510010;31;33094;-83
2022/12/18 00:06:11;;;;;;;;;;;;;;;2.66;50.19;100455.34;4515469;31;34974;-82
2022/12/18 00:08:38;;;;;;;;;;;;;;;3.40;48.81;100454.06;4513820;31;33811;-83
2022/12/18 00:11:06;;;;;;;;;;;;;;;3.57;48.17;100461.94;4515956;31;34343;-85
2022/12/18 00:13:34;;;;;;;;;;;;;;;2.98;49.45;100464.19;4511171;31;34121;-81
2022/12/18 00:16:02;;;;;;;;;;;;;;;3.50;48.38;100477.72;4516146;31;34851;-83
2022/12/18 00:18:30;;;;;;;;;;;;;;;2.38;51.21;100478.25;4503829;31;34230;-84
2022/12/18 00:21:00;;;;;;;;;;;;;;;1.03;55.01;100494.53;4498427;31;33809;-84
2022/12/18 00:23:28;;;;;;;;;;;;;;;1.50;54.64;100489.31;4500006;31;34303;-83
2022/12/18 00:25:58;;;;;;;;;;;;;;;1.57;53.99;100488.97;4507538;31;34118;-84
2022/12/18 00:28:26;;;;;;;;;;;;;;;1.10;55.35;100491.66;4513041;31;34058;-83
2022/12/18 00:31:00;;;;;;;;;;;;;;;0.90;56.16;100491.88;4500547;31;34371;-83
2022/12/18 00:33:27;;;;;;;;;;;;;;;0.18;58.01;100499.31;4499833;31;34189;-84
2022/12/18 00:35:55;;;;;;;;;;;;;;;0.33;57.92;100499.59;4516396;31;34255;-84
2022/12/18 00:38:22;;;;;;;;;;;;;;;0.94;55.57;100494.75;4512723;31;34359;-81
2022/12/18 00:40:50;;;;;;;;;;;;;;;1.06;55.82;100499.88;4501184;31;34318;-83
2022/12/18 00:43:17;;;;;;;;;;;;;;;1.51;54.26;100497.87;4515507;31;33580;-83
2022/12/18 00:45:44;;;;;;;;;;;;;;;1.40;54.67;100505.69;4514740;31;35124;-84
2022/12/18 00:48:12;;;;;;;;;;;;;;;0.87;55.66;100502.75;4514296;31;35316;-83
2022/12/18 00:50:39;;;;;;;;;;;;;;;1.90;53.58;100508.31;4483726;31;873661;-83
2022/12/18 00:53:06;;;;;;;;;;;;;;;0.42;56.78;100516.47;4512732;31;33221;-84
2022/12/18 00:55:34;;;;;;;;;;;;;;;2.14;52.73;100516.75;4514924;31;34466;-84
2022/12/18 00:58:01;;;;;;;;;;;;;;;1.70;53.26;100523.94;4511831;31;34454;-83
2022/12/18 01:00:28;;;;;;;;;;;;;;;2.17;52.30;100519.53;4499587;31;34298;-85
2022/12/18 01:02:55;;;;;;;;;;;;;;;3.19;49.75;100519.38;4513483;31;34217;-84
2022/12/18 01:05:24;;;;;;;;;;;;;;;3.40;48.76;100528.41;4516050;31;35116;-84
2022/12/18 01:07:52;;;;;;;;;;;;;;;3.35;49.10;100524.69;4509685;31;34306;-83
2022/12/18 01:10:19;;;;;;;;;;;;;;;2.43;50.89;100533.19;4515366;31;34217;-83
2022/12/18 01:12:47;;;;;;;;;;;;;;;2.83;50.26;100531.56;4515523;31;34050;-84
2022/12/18 01:15:14;;;;;;;;;;;;;;;3.11;48.85;100535.94;4514912;31;34764;-83
2022/12/18 01:17:42;;;;;;;;;;;;;;;3.39;48.53;100547.16;4503348;31;35174;-83
2022/12/18 01:20:10;;;;;;;;;;;;;;;2.76;49.04;100549.00;4502687;31;34515;-84
2022/12/18 01:22:37;;;;;;;;;;;;;;;3.60;48.08;100546.75;4515376;31;33366;-84
2022/12/18 01:25:07;;;;;;;;;;;;;;;4.37;46.15;100560.00;4515495;31;34068;-82
2022/12/18 01:27:34;;;;;;;;;;;;;;;3.74;47.84;100566.41;4515158;31;34469;-84
2022/12/18 01:30:03;;;;;;;;;;;;;;;4.16;46.79;100562.16;4502806;31;33918;-83
2022/12/18 01:32:31;;;;;;;;;;;;;;;3.20;48.34;100563.84;4514331;31;34256;-84
2022/12/18 01:34:58;;;;;;;;;;;;;;;3.84;47.16;100570.47;4510537;31;35117;-84
2022/12/18 01:37:26;;;;;;;;;;;;;;;4.46;45.86;100562.22;4524157;31;33883;-84
2022/12/18 01:39:54;;;;;;;;;;;;;;;4.70;45.09;100563.69;4513957;31;33903;-84
2022/12/18 01:42:21;;;;;;;;;;;;;;;3.79;47.23;100565.03;4514929;31;33428;-85
2022/12/18 01:45:06;;;;;;;;;;;;;;;3.12;49.09;100569.34;4513041;31;34098;-85
2022/12/18 01:47:35;;;;;;;;;;;;;;;2.47;51.54;100582.94;4503975;31;35618;-83
2022/12/18 01:50:13;;;;;;;;;;;;;;;2.39;50.65;100578.19;4511755;31;34091;-84
2022/12/18 01:52:41;;;;;;;;;;;;;;;3.27;49.05;100573.69;4498862;31;32624;-84
2022/12/18 01:55:09;;;;;;;;;;;;;;;2.41;51.21;100586.84;4498146;31;34830;-85
2022/12/18 01:57:37;;;;;;;;;;;;;;;2.25;51.10;100584.03;4504851;31;34199;-84
2022/12/18 02:00:09;;;;;;;;;;;;;;;3.28;49.11;100584.03;4514261;31;35212;-82
2022/12/18 02:02:39;;;;;;;;;;;;;;;3.62;47.80;100575.91;4506610;31;33688;-84
2022/12/18 02:05:07;;;;;;;;;;;;;;;3.34;48.39;100579.31;4513302;31;34775;-82
2022/12/18 02:07:53;;;;;;;;;;;;;;;3.61;48.07;100584.41;4511669;31;33996;-84
2022/12/18 02:10:23;;;;;;;;;;;;;;;2.76;50.00;100587.41;4509245;31;34774;-83
2022/12/18 02:12:50;;;;;;;;;;;;;;;3.07;49.60;100583.53;4513245;31;33044;-83
2022/12/18 02:15:18;;;;;;;;;;;;;;;2.68;50.60;100594.59;4521171;31;33902;-82
2022/12/18 02:17:56;;;;;;;;;;;;;;;2.22;51.42;100591.47;4513708;31;35182;-83
2022/12/18 02:20:36;;;;;;;;;;;;;;;2.58;50.76;100580.31;4499662;31;33736;-84
2022/12/18 02:23:19;;;;;;;;;;;;;;;3.50;48.71;100587.97;4507406;31;32889;-83
2022/12/18 02:26:06;;;;;;;;;;;;;;;2.25;50.57;100607.06;4508723;31;35003;-83
2022/12/18 02:28:35;;;;;;;;;;;;;;;1.95;51.95;100609.25;4501329;31;32891;-84
2022/12/18 02:31:03;;;;;;;;;;;;;;;2.79;50.36;100603.88;4500172;31;33700;-84
2022/12/18 02:33:31;;;;;;;;;;;;;;;3.36;48.81;100607.59;4512168;31;34228;-84
2022/12/18 02:35:59;;;;;;;;;;;;;;;2.72;49.72;100609.38;4510205;31;34166;-83
2022/12/18 02:38:26;;;;;;;;;;;;;;;3.25;48.74;100612.00;4502984;31;34170;-83
2022/12/18 02:40:54;;;;;;;;;;;;;;;2.88;49.82;100608.75;4505346;31;34623;-84
2022/12/18 02:43:22;;;;;;;;;;;;;;;3.16;49.06;100619.13;4508950;31;32965;-82
2022/12/18 02:45:54;;;;;;;;;;;;;;;3.90;46.83;100622.12;4514261;31;34598;-83
2022/12/18 02:48:24;;;;;;;;;;;;;;;3.58;47.64;100623.56;4506744;31;34139;-84
2022/12/18 02:51:04;;;;;;;;;;;;;;;2.88;49.45;100622.44;4507087;31;35034;-85
2022/12/18 02:53:34;;;;;;;;;;;;;;;2.34;50.51;100622.12;4511774;31;33234;-83
2022/12/18 02:56:09;;;;;;;;;;;;;;;2.59;50.13;100632.38;4498124;31;33894;-85
2022/12/18 02:58:44;;;;;;;;;;;;;;;3.34;48.52;100628.00;4503606;31;35198;-83
2022/12/18 03:01:15;;;;;;;;;;;;;;;3.01;49.09;100636.06;4509169;31;34360;-82
2022/12/18 03:03:45;;;;;;;;;;;;;;;3.18;48.35;100627.78;4509697;31;34361;-84
2022/12/18 03:06:26;;;;;;;;;;;;;;;3.49;47.91;100642.62;4509927;31;33804;-84
2022/12/18 03:09:06;;;;;;;;;;;;;;;3.68;47.25;100642.12;4511720;31;35311;-84
2022/12/18 03:14:20;;;;;;;;;;;;;;;4.06;46.14;100647.09;4503185;31;32942;-82
2022/12/18 03:16:49;;;;;;;;;;;;;;;4.03;46.07;100652.91;4512676;31;34934;-83
2022/12/18 03:19:18;;;;;;;;;;;;;;;4.32;45.46;100649.59;4501739;31;33791;-83
2022/12/18 03:21:52;;;;;;;;;;;;;;;3.47;46.52;100657.87;4500010;31;33270;-82
2022/12/18 03:24:19;;;;;;;;;;;;;;;2.92;48.32;100665.41;4505554;31;33358;-84
2022/12/18 03:26:47;;;;;;;;;;;;;;;2.61;49.39;100664.09;4505588;31;34338;-84
2022/12/18 03:29:21;;;;;;;;;;;;;;;2.34;50.49;100670.75;4513921;31;34085;-84
2022/12/18 03:31:53;;;;;;;;;;;;;;;3.19;48.13;100672.25;4491820;31;33721;-84
2022/12/18 03:34:26;;;;;;;;;;;;;;;3.72;47.00;100668.06;4515254;31;33384;-82
2022/12/18 03:36:53;;;;;;;;;;;;;;;4.18;45.63;100672.62;4516819;31;35280;-84
2022/12/18 03:39:22;;;;;;;;;;;;;;;4.19;45.57;100682.97;4501816;31;34036;-83
2022/12/18 03:42:02;;;;;;;;;;;;;;;3.98;46.24;100682.53;4502159;31;34375;-82
2022/12/18 03:44:30;;;;;;;;;;;;;;;4.53;44.98;100692.75;4515632;31;34302;-84
2022/12/18 03:46:57;;;;;;;;;;;;;;;3.72;46.16;100693.69;4514454;31;34906;-83
2022/12/18 03:49:25;;;;;;;;;;;;;;;3.02;47.94;100697.63;4515384;31;34479;-84
2022/12/18 03:51:55;;;;;;;;;;;;;;;3.61;46.62;100690.44;4508341;31;33699;-82
2022/12/18 03:54:23;;;;;;;;;;;;;;;3.28;47.75;100698.47;4507698;31;33043;-84
2022/12/18 03:56:54;;;;;;;;;;;;;;;4.06;46.01;100690.72;4509090;31;35008;-84
2022/12/18 03:59:21;;;;;;;;;;;;;;;2.62;49.29;100699.16;4514875;31;35215;-83
2022/12/18 04:01:49;;;;;;;;;;;;;;;2.41;49.32;100699.44;4511085;31;34909;-83
2022/12/18 04:04:17;;;;;;;;;;;;;;;3.90;46.26;100696.53;4507315;31;33728;-83
2022/12/18 04:06:45;;;;;;;;;;;;;;;3.95;46.13;100699.41;4510932;31;33806;-83
2022/12/18 04:09:13;;;;;;;;;;;;;;;3.72;46.44;100693.69;4506036;31;35299;-85
2022/12/18 04:11:43;;;;;;;;;;;;;;;3.85;46.13;100703.06;4503180;31;32519;-84
2022/12/18 04:14:10;;;;;;;;;;;;;;;4.41;44.88;100707.44;4511159;31;33454;-82
2022/12/18 04:16:44;;;;;;;;;;;;;;;4.53;44.55;100705.59;4514253;31;35053;-84
2022/12/18 04:19:12;;;;;;;;;;;;;;;4.77;43.85;100708.78;4515028;31;35145;-85
2022/12/18 04:21:39;;;;;;;;;;;;;;;5.01;42.99;100704.25;4514241;31;33997;-83
2022/12/18 04:24:09;;;;;;;;;;;;;;;4.74;43.64;100709.50;4503693;31;34238;-83
2022/12/18 04:26:38;;;;;;;;;;;;;;;5.14;42.36;100696.44;4513017;31;33698;-82
2022/12/18 04:29:07;;;;;;;;;;;;;;;3.03;46.43;100711.31;4515110;31;35474;-84
2022/12/18 04:31:36;;;;;;;;;;;;;;;3.45;46.29;100709.84;4504829;31;34062;-84
2022/12/18 04:34:04;;;;;;;;;;;;;;;2.39;48.82;100720.62;4510516;31;32429;-83
2022/12/18 04:36:33;;;;;;;;;;;;;;;1.92;50.26;100719.00;4515506;31;33864;-84
2022/12/18 04:39:00;;;;;;;;;;;;;;;1.89;50.03;100720.44;4512857;31;35261;-84
2022/12/18 04:41:27;;;;;;;;;;;;;;;3.29;47.29;100728.44;4514868;31;34227;-84
2022/12/18 04:43:55;;;;;;;;;;;;;;;3.61;45.73;100728.91;4511733;31;33414;-82
2022/12/18 04:46:22;;;;;;;;;;;;;;;4.20;44.66;100723.25;4515016;31;34254;-82
2022/12/18 04:48:49;;;;;;;;;;;;;;;4.19;44.44;100736.88;4515068;31;34425;-82
2022/12/18 04:51:17;;;;;;;;;;;;;;;3.76;45.40;100743.53;4510626;31;34975;-84
2022/12/18 04:53:52;;;;;;;;;;;;;;;3.96;44.81;100738.00;4512880;31;33252;-83
2022/12/18 04:56:20;;;;;;;;;;;;;;;4.49;43.40;100744.75;4514655;31;33601;-83
2022/12/18 04:58:47;;;;;;;;;;;;;;;4.53;43.19;100754.41;4515069;31;34208;-84
2022/12/18 05:01:15;;;;;;;;;;;;;;;4.78;42.62;100749.13;4510447;31;33834;-84
2022/12/18 05:03:43;;;;;;;;;;;;;;;4.83;42.13;100761.44;4511288;31;34064;-84
2022/12/18 05:06:11;;;;;;;;;;;;;;;5.10;41.88;100767.34;4506881;31;34019;-84
2022/12/18 05:08:39;;;;;;;;;;;;;;;5.33;41.03;100765.25;4506429;31;34174;-83
2022/12/18 05:11:08;;;;;;;;;;;;;;;5.22;41.10;100762.03;4513644;31;33562;-84
2022/12/18 05:13:37;;;;;;;;;;;;;;;5.20;40.97;100758.50;4515035;31;33274;-82
2022/12/18 05:16:06;;;;;;;;;;;;;;;4.58;42.34;100763.28;4506790;31;34119;-84
2022/12/18 05:18:33;;;;;;;;;;;;;;;4.55;42.64;100760.53;4515533;31;34914;-84
2022/12/18 05:21:00;;;;;;;;;;;;;;;4.28;43.45;100758.03;4513968;31;34459;-84
2022/12/18 05:23:28;;;;;;;;;;;;;;;4.60;42.57;100759.13;4506914;31;32908;-85
2022/12/18 05:25:56;;;;;;;;;;;;;;;4.27;43.20;100769.06;4514796;31;34237;-84
2022/12/18 05:28:24;;;;;;;;;;;;;;;4.22;43.18;100765.31;4506924;31;34456;-84
2022/12/18 05:30:52;;;;;;;;;;;;;;;4.91;41.55;100773.88;4507311;31;34322;-84
2022/12/18 05:33:20;;;;;;;;;;;;;;;4.98;41.09;100770.88;4506966;31;33608;-84
2022/12/18 05:35:54;;;;;;;;;;;;;;;4.88;41.29;100778.00;4514077;31;33826;-84
2022/12/18 05:38:22;;;;;;;;;;;;;;;3.92;43.85;100786.44;4510254;31;34896;-83
2022/12/18 05:40:49;;;;;;;;;;;;;;;4.26;42.84;100775.00;4513978;31;34070;-84
2022/12/18 05:43:17;;;;;;;;;;;;;;;4.48;42.56;100789.19;4504968;31;33295;-83
2022/12/18 05:45:48;;;;;;;;;;;;;;;4.87;41.68;100789.09;4505505;31;33834;-82
2022/12/18 05:48:15;;;;;;;;;;;;;;;4.52;41.94;100788.59;4507070;31;34388;-83
2022/12/18 05:50:43;;;;;;;;;;;;;;;4.74;41.54;100794.28;4509963;31;32885;-82
2022/12/18 05:53:11;;;;;;;;;;;;;;;5.33;40.54;100799.56;4510592;31;33341;-84
2022/12/18 05:55:39;;;;;;;;;;;;;;;4.67;42.00;100796.37;4514589;31;34097;-84
2022/12/18 05:58:07;;;;;;;;;;;;;;;4.51;41.91;100799.63;4503811;31;35155;-83
2022/12/18 06:00:35;;;;;;;;;;;;;;;4.63;41.91;100798.75;4507390;31;34742;-85
2022/12/18 06:03:03;;;;;;;;;;;;;;;4.75;41.65;100798.63;4514486;31;34164;-84
2022/12/18 06:05:34;;;;;;;;;;;;;;;5.10;40.68;100808.47;4514380;31;34331;-84
2022/12/18 06:08:01;;;;;;;;;;;;;;;4.68;40.95;100801.59;4514477;31;34396;-84
2022/12/18 06:10:28;;;;;;;;;;;;;;;4.82;40.93;100808.47;4513350;31;34486;-82
2022/12/18 06:12:55;;;;;;;;;;;;;;;4.62;41.24;100811.47;4510543;31;33795;-84
2022/12/18 06:15:22;;;;;;;;;;;;;;;4.96;40.45;100816.13;4511952;31;34978;-84
2022/12/18 06:17:50;;;;;;;;;;;;;;;5.22;39.87;100810.91;4513897;31;34430;-84
2022/12/18 06:20:17;;;;;;;;;;;;;;;5.14;40.04;100814.69;4513772;31;34339;-82
2022/12/18 06:22:44;;;;;;;;;;;;;;;5.22;39.84;100818.62;4517367;31;33387;-83
2022/12/18 06:25:12;;;;;;;;;;;;;;;4.96;40.36;100823.84;4513986;31;34576;-84
2022/12/18 06:27:39;;;;;;;;;;;;;;;4.72;40.94;100821.53;4514136;31;34804;-83
2022/12/18 06:30:08;;;;;;;;;;;;;;;4.98;40.46;100822.28;4513066;31;34084;-82
2022/12/18 06:32:36;;;;;;;;;;;;;;;4.68;41.07;100831.53;4504441;31;33221;-83
2022/12/18 06:35:03;;;;;;;;;;;;;;;4.77;41.12;100840.72;4511272;31;34288;-83
2022/12/18 06:37:31;;;;;;;;;;;;;;;4.49;41.45;100838.06;4505173;31;34081;-84
2022/12/18 06:39:58;;;;;;;;;;;;;;;5.06;40.42;100846.75;4511914;31;33645;-83
2022/12/18 06:42:26;;;;;;;;;;;;;;;5.25;40.10;100848.78;4508076;31;33395;-83
2022/12/18 06:44:53;;;;;;;;;;;;;;;5.09;40.29;100862.38;4513028;31;34059;-83
2022/12/18 06:47:21;;;;;;;;;;;;;;;4.86;40.71;100858.38;4509305;31;34443;-85
2022/12/18 06:49:48;;;;;;;;;;;;;;;5.13;40.36;100854.94;4514078;31;34319;-84
2022/12/18 06:52:15;;;;;;;;;;;;;;;5.26;39.92;100851.44;4513320;31;33520;-84
2022/12/18 06:54:42;;;;;;;;;;;;;;;5.22;40.23;100862.31;4512680;31;33758;-82
2022/12/18 06:57:09;;;;;;;;;;;;;;;5.52;39.92;100862.41;4507016;31;33727;-84
2022/12/18 06:59:37;;;;;;;;;;;;;;;5.52;39.52;100860.72;4505897;31;33330;-83
2022/12/18 07:02:04;;;;;;;;;;;;;;;5.29;40.11;100871.31;4513662;31;33268;-84
2022/12/18 07:04:31;;;;;;;;;;;;;;;5.40;40.07;100874.53;4516220;31;33734;-84
2022/12/18 07:06:58;;;;;;;;;;;;;;;5.51;39.85;100876.06;4515368;31;33836;-83
2022/12/18 07:09:26;;;;;;;;;;;;;;;5.10;40.77;100879.56;4508888;31;32685;-83
2022/12/18 07:11:56;;;;;;;;;;;;;;;4.94;41.21;100879.44;4515597;31;34285;-82
2022/12/18 07:14:24;;;;;;;;;;;;;;;4.55;42.06;100887.28;4515789;31;34927;-84
2022/12/18 07:16:52;;;;;;;;;;;;;;;4.36;42.78;100894.59;4514752;31;34030;-83
2022/12/18 07:19:19;;;;;;;;;;;;;;;4.39;42.70;100905.94;4506604;31;34682;-83
2022/12/18 07:21:46;;;;;;;;;;;;;;;5.02;41.55;100901.34;4515131;31;33768;-84
2022/12/18 07:24:14;;;;;;;;;;;;;;;5.15;41.24;100898.72;4514292;31;33835;-83
2022/12/18 07:26:41;;;;;;;;;;;;;;;4.87;41.79;100906.41;4510496;31;34394;-83
2022/12/18 07:29:08;;;;;;;;;;;;;;;5.03;41.58;100906.56;4514691;31;34330;-82
2022/12/18 07:31:35;;;;;;;;;;;;;;;4.85;41.95;100916.59;4515664;31;31795;-83
2022/12/18 07:34:03;;;;;;;;;;;;;;;4.72;42.20;100929.44;4514828;31;34178;-83
2022/12/18 07:36:30;;;;;;;;;;;;;;;4.60;42.10;100933.81;4515115;31;35244;-82
2022/12/18 07:38:57;;;;;;;;;;;;;;;4.76;41.89;100926.28;4514766;31;34775;-82
2022/12/18 07:41:24;;;;;;;;;;;;;;;4.56;42.41;100942.09;4513267;31;33323;-84
2022/12/18 07:43:51;;;;;;;;;;;;;;;4.91;41.98;100938.34;4515686;31;34009;-83
2022/12/18 07:46:19;;;;;;;;;;;;;;;4.65;42.28;100940.12;4514972;31;34406;-82
2022/12/18 07:48:46;;;;;;;;;;;;;;;4.83;42.14;100945.56;4508113;31;35152;-82
2022/12/18 07:51:16;;;;;;;;;;;;;;;5.00;41.95;100949.19;4514513;31;34428;-85
2022/12/18 07:53:44;;;;;;;;;;;;;;;5.14;41.93;100948.38;4515533;31;34355;-83
2022/12/18 07:56:11;;;;;;;;;;;;;;;4.84;42.30;100953.34;4501876;31;35309;-83
2022/12/18 07:58:57;;;;;;;;;;;;;;;5.13;41.95;100967.19;4514665;31;33852;-84
2022/12/18 08:01:25;;;;;;;;;;;;;;;5.00;41.67;100967.19;4515423;31;33618;-84
2022/12/18 08:03:53;;;;;;;;;;;;;;;4.20;43.29;100979.94;4515104;31;34395;-84
2022/12/18 08:06:20;;;;;;;;;;;;;;;4.99;42.64;100970.56;4501341;31;34935;-83
2022/12/18 08:08:51;;;;;;;;;;;;;;;4.91;42.58;100977.78;4509002;31;34348;-85
2022/12/18 08:11:18;;;;;;;;;;;;;;;4.38;43.96;100988.00;4508972;31;34215;-83
2022/12/18 08:13:47;;;;;;;;;;;;;;;4.42;44.25;100992.53;4513894;31;34716;-84
2022/12/18 08:16:15;;;;;;;;;;;;;;;4.73;43.22;100987.75;4511512;31;34464;-83
2022/12/18 08:18:42;;;;;;;;;;;;;;;4.69;43.62;100995.16;4514718;31;33909;-83
2022/12/18 08:21:14;;;;;;;;;;;;;;;4.98;42.92;100987.66;4515113;31;34404;-82
2022/12/18 08:23:42;;;;;;;;;;;;;;;5.00;42.75;100990.31;4508162;31;33492;-84
2022/12/18 08:26:10;;;;;;;;;;;;;;;5.01;42.78;100993.00;4513961;31;34168;-83
2022/12/18 08:28:38;;;;;;;;;;;;;;;4.95;42.82;100992.59;4515116;31;34698;-84
2022/12/18 08:31:05;;;;;;;;;;;;;;;4.57;43.84;100992.69;4523410;31;33373;-83
2022/12/18 08:33:32;;;;;;;;;;;;;;;4.47;43.16;101000.56;4513368;31;34531;-83
2022/12/18 08:36:00;;;;;;;;;;;;;;;4.30;43.69;101005.47;4487522;31;35425;-84
2022/12/18 08:38:27;;;;;;;;;;;;;;;4.86;42.98;101010.00;4513683;31;33943;-84
2022/12/18 08:40:59;;;;;;;;;;;;;;;4.72;42.92;101003.97;4515246;31;33210;-83
2022/12/18 08:46:12;;;;;;;;;;;;;;;3.94;44.69;101006.44;4511366;31;34311;-85
2022/12/18 08:48:40;;;;;;;;;;;;;;;3.65;45.34;101007.00;4505873;31;35417;-84
2022/12/18 08:51:09;;;;;;;;;;;;;;;3.91;44.37;101001.09;4513925;31;32916;-85
2022/12/18 08:53:38;;;;;;;;;;;;;;;4.46;43.59;101003.91;4506369;31;33737;-84
2022/12/18 08:56:06;;;;;;;;;;;;;;;5.19;41.35;101011.28;4501807;31;33923;-83
2022/12/18 08:58:33;;;;;;;;;;;;;;;5.49;40.56;101003.69;4512621;31;33735;-84
2022/12/18 09:01:03;;;;;;;;;;;;;;;4.91;42.10;101015.44;4504667;31;33563;-83
2022/12/18 09:03:31;;;;;;;;;;;;;;;4.91;42.39;101015.44;4501325;31;33660;-84
2022/12/18 09:05:59;;;;;;;;;;;;;;;4.73;42.58;101021.13;4515494;31;33996;-85
2022/12/18 09:08:26;;;;;;;;;;;;;;;4.53;42.03;101022.41;4498802;31;34237;-84
2022/12/18 09:10:55;;;;;;;;;;;;;;;4.68;42.08;101027.66;4503457;31;33473;-83
2022/12/18 09:13:22;;;;;;;;;;;;;;;3.64;44.21;101030.88;4510725;31;34978;-84
2022/12/18 09:15:50;;;;;;;;;;;;;;;4.44;43.34;101033.75;4512266;31;34195;-80
2022/12/18 09:18:18;;;;;;;;;;;;;;;4.13;42.88;101039.41;4505452;31;34242;-82
2022/12/18 09:20:45;;;;;;;;;;;;;;;4.42;42.64;101041.34;4503034;31;32783;-83
2022/12/18 09:23:13;;;;;;;;;;;;;;;3.56;44.25;101040.59;4508224;31;33739;-84
2022/12/18 09:25:40;;;;;;;;;;;;;;;4.55;43.10;101037.94;4512416;31;34251;-82
2022/12/18 09:28:10;;;;;;;;;;;;;;;4.87;42.73;101033.22;4509570;31;34266;-82
2022/12/18 09:30:38;;;;;;;;;;;;;;;4.46;42.23;101029.59;4511336;31;33253;-81
2022/12/18 09:33:06;;;;;;;;;;;;;;;4.73;41.83;101027.97;4506041;31;33726;-81
2022/12/18 09:35:36;;;;;;;;;;;;;;;4.70;42.62;101025.19;4511221;31;34273;-83
2022/12/18 09:38:03;;;;;;;;;;;;;;;5.30;40.95;101020.56;4506855;31;34782;-83
2022/12/18 09:40:35;;;;;;;;;;;;;;;5.40;41.16;101023.72;4512933;31;34191;-81
2022/12/18 09:43:04;;;;;;;;;;;;;;;5.44;41.14;101023.13;4511778;31;35169;-84
2022/12/18 09:45:39;;;;;;;;;;;;;;;5.69;40.61;101022.97;4502324;31;34178;-83
2022/12/18 09:48:09;;;;;;;;;;;;;;;4.64;41.46;101018.88;4502717;31;33550;-83
2022/12/18 09:50:37;;;;;;;;;;;;;;;5.06;41.10;101031.84;4503006;31;33401;-83
2022/12/18 09:53:05;;;;;;;;;;;;;;;5.24;40.78;101021.84;4508940;31;34747;-83
2022/12/18 09:55:34;;;;;;;;;;;;;;;4.90;41.75;101039.38;4500656;31;34301;-82
2022/12/18 09:58:10;;;;;;;;;;;;;;;3.93;43.31;101029.41;4506512;31;33948;-82
2022/12/18 10:00:37;;;;;;;;;;;;;;;4.60;42.15;101033.97;4502468;31;32434;-82
2022/12/18 10:03:12;;;;;;;;;;;;;;;4.44;42.29;101026.94;4505214;31;33368;-81
2022/12/18 10:05:39;;;;;;;;;;;;;;;3.92;44.03;101032.78;4501747;31;33152;-81
2022/12/18 10:08:27;;;;;;;;;;;;;;;4.61;42.94;101036.63;4510564;31;34799;-81
2022/12/18 10:10:57;;;;;;;;;;;;;;;4.78;42.49;101035.19;4508244;31;33375;-82
2022/12/18 10:13:28;;;;;;;;;;;;;;;5.05;41.46;101035.22;4505354;31;34894;-84
2022/12/18 10:16:01;;;;;;;;;;;;;;;5.04;41.65;101038.59;4508602;31;34365;-82
2022/12/18 10:18:35;;;;;;;;;;;;;;;4.50;41.41;101036.72;4492233;31;33965;-83
2022/12/18 10:21:21;;;;;;;;;;;;;;;6.17;38.54;101027.66;4511345;31;34105;-83
2022/12/18 10:23:58;;;;;;;;;;;;;;;5.81;39.15;101024.59;4500884;31;33797;-84
2022/12/18 10:26:25;;;;;;;;;;;;;;;5.57;39.05;101024.00;4503092;31;32978;-84
2022/12/18 10:28:53;;;;;;;;;;;;;;;5.52;40.54;101021.91;4511139;31;34326;-83
2022/12/18 10:31:21;;;;;;;;;;;;;;;5.75;39.46;101019.06;4513501;31;33532;-82
2022/12/18 10:33:51;;;;;;;;;;;;;;;5.41;40.69;101025.47;4512593;31;33556;-82
2022/12/18 10:36:18;;;;;;;;;;;;;;;6.19;39.53;101025.19;4506752;31;35313;-83
2022/12/18 10:38:46;;;;;;;;;;;;;;;5.77;40.12;101020.06;4507410;31;34019;-83
2022/12/18 10:41:21;;;;;;;;;;;;;;;5.90;39.34;101015.66;4512894;31;33470;-82
2022/12/18 10:43:51;;;;;;;;;;;;;;;5.70;39.43;101025.62;4513303;31;33875;-83
2022/12/18 10:46:19;;;;;;;;;;;;;;;6.32;37.68;101022.53;4509729;31;33502;-83
2022/12/18 10:48:46;;;;;;;;;;;;;;;5.37;39.99;101020.16;4513462;31;33956;-83
2022/12/18 10:51:33;;;;;;;;;;;;;;;5.74;39.60;101026.72;4513015;31;33780;-83
2022/12/18 10:54:01;;;;;;;;;;;;;;;5.64;39.66;101025.22;4513530;31;34035;-81
2022/12/18 10:56:31;;;;;;;;;;;;;;;6.16;38.52;101023.31;4504872;31;34500;-81
2022/12/18 10:59:03;;;;;;;;;;;;;;;5.25;40.28;101029.66;4512817;31;34394;-82
2022/12/18 11:01:50;;;;;;;;;;;;;;;5.81;39.61;101022.03;4513178;31;32807;-82
2022/12/18 11:04:19;;;;;;;;;;;;;;;4.58;42.78;101032.97;4510149;31;34012;-83
2022/12/18 11:06:56;;;;;;;;;;;;;;;5.90;40.68;101020.81;4504545;31;35224;-82
2022/12/18 11:09:24;;;;;;;;;;;;;;;6.03;40.01;101015.66;4504331;31;32872;-83
2022/12/18 11:11:56;;;;;;;;;;;;;;;5.45;41.85;101009.44;4504489;31;32609;-81
2022/12/18 11:14:23;;;;;;;;;;;;;;;5.41;42.23;101010.94;4505708;31;34182;-83
2022/12/18 11:16:50;;;;;;;;;;;;;;;5.65;41.70;101018.44;4510957;31;34293;-81
2022/12/18 11:19:39;;;;;;;;;;;;;;;5.81;41.61;101011.75;4504988;31;34266;-81
2022/12/18 11:22:20;;;;;;;;;;;;;;;6.41;40.37;101010.22;4498792;31;33192;-81
2022/12/18 11:25:03;;;;;;;;;;;;;;;6.32;40.49;101007.06;4508979;31;33895;-81
2022/12/18 11:27:51;;;;;;;;;;;;;;;5.74;41.29;101008.69;4509986;31;35049;-82
2022/12/18 11:30:37;;;;;;;;;;;;;;;6.14;40.49;101003.41;4505740;31;33563;-83
2022/12/18 11:33:20;;;;;;;;;;;;;;;6.24;39.71;101010.88;4507470;31;33533;-83
2022/12/18 11:35:58;;;;;;;;;;;;;;;6.96;38.61;100995.34;4504872;31;33756;-84
2022/12/18 11:38:27;;;;;;;;;;;;;;;6.59;39.83;101002.66;4497628;31;33342;-83
2022/12/18 11:41:13;;;;;;;;;;;;;;;6.14;39.87;100990.53;4502305;31;34323;-83
2022/12/18 11:43:54;;;;;;;;;;;;;;;5.32;41.51;100994.94;4508981;31;33537;-83
2022/12/18 11:46:36;;;;;;;;;;;;;;;6.24;38.59;100998.91;4503994;31;34126;-82
2022/12/18 11:49:06;;;;;;;;;;;;;;;6.48;38.54;101007.19;4507148;31;33905;-82
2022/12/18 11:51:38;;;;;;;;;;;;;;;6.71;38.47;101000.81;4500956;31;34368;-82
2022/12/18 11:54:12;;;;;;;;;;;;;;;6.74;38.11;100985.53;4502845;31;32802;-82
2022/12/18 11:56:51;;;;;;;;;;;;;;;7.38;37.08;100982.16;4506025;31;34923;-83
2022/12/18 11:59:32;;;;;;;;;;;;;;;6.69;38.02;100991.19;4511166;31;34474;-82
2022/12/18 12:02:18;;;;;;;;;;;;;;;7.34;37.03;100981.09;4513856;31;33658;-82
2022/12/18 12:04:52;;;;;;;;;;;;;;;7.31;37.69;100976.69;4512584;31;34266;-82
2022/12/18 12:07:19;;;;;;;;;;;;;;;7.25;36.89;100970.28;4514225;31;34594;-82
2022/12/18 12:09:46;;;;;;;;;;;;;;;6.80;36.97;100972.97;4512960;31;34422;-82
2022/12/18 12:12:45;;;;;;;;;;;;;;;7.25;36.60;100967.72;4514510;31;33486;-83
2022/12/18 12:15:31;;;;;;;;;;;;;;;7.54;35.54;100974.47;4510740;31;33234;-82
2022/12/18 12:18:08;;;;;;;;;;;;;;;7.85;35.65;100973.50;4513615;31;34814;-82
2022/12/18 12:20:43;;;;;;;;;;;;;;;7.73;36.24;100972.03;4511179;31;34119;-82
2022/12/18 12:23:13;;;;;;;;;;;;;;;7.89;36.37;100970.28;4514485;31;33791;-82
2022/12/18 12:25:44;;;;;;;;;;;;;;;7.88;36.83;100971.06;4514400;31;33420;-82
2022/12/18 12:28:19;;;;;;;;;;;;;;;8.50;35.15;100976.91;4504516;31;34312;-82
2022/12/18 12:30:56;;;;;;;;;;;;;;;8.06;35.87;100972.00;4512830;31;33716;-83
2022/12/18 12:33:27;;;;;;;;;;;;;;;8.33;35.79;100982.87;4510231;31;33896;-82
2022/12/18 12:36:02;;;;;;;;;;;;;;;8.45;35.75;100982.66;4504066;31;33867;-81
2022/12/18 12:38:43;;;;;;;;;;;;;;;8.49;35.82;100974.25;4501999;31;33377;-80
2022/12/18 12:44:09;;;;;;;;;;;;;;;8.80;35.16;100970.59;4513227;31;34583;-83
2022/12/18 12:46:38;;;;;;;;;;;;;;;8.45;35.47;100980.06;4504970;31;33605;-81
2022/12/18 12:49:10;;;;;;;;;;;;;;;8.67;35.23;100988.06;4492566;31;34603;-81
2022/12/18 12:51:39;;;;;;;;;;;;;;;8.73;34.95;100979.75;4504485;31;34896;-83
2022/12/18 12:54:11;;;;;;;;;;;;;;;8.47;35.56;100988.78;4513129;31;33676;-83
2022/12/18 12:56:50;;;;;;;;;;;;;;;8.64;35.80;101006.03;4504633;31;33671;-84
2022/12/18 12:59:21;;;;;;;;;;;;;;;8.46;36.11;101012.87;4503970;31;35136;-83
2022/12/18 13:01:49;;;;;;;;;;;;;;;8.62;35.92;101012.81;4503397;31;33848;-81
2022/12/18 13:04:20;;;;;;;;;;;;;;;8.65;36.24;101007.81;4514324;31;33925;-85
2022/12/18 13:07:07;;;;;;;;;;;;;;;7.84;37.64;101010.44;4506521;31;33066;-82
2022/12/18 13:09:35;;;;;;;;;;;;;;;8.04;37.38;101008.12;4509445;31;34128;-85
2022/12/18 13:14:51;;;;;;;;;;;;;;;8.47;36.49;101015.50;4499791;31;33786;-83